Time;durP1;ratioP1;P1;durP2;ratioP2;P2;SDS_P1;SDS_P2;PMS_P1;PMS_P2;Temp;Humidity;BMP_temperature;BMP_pressure;BME280_temperature;BME280_humidity;BME280_pressure;Samples;Min_cycle;Max_cycle;Signal;HPM_P1;HPM_P2
2021/11/03 00:02:05;;;;;;;2.63;1.70;;;;;;;;;;4536895;28;20495;-58
2021/11/03 00:04:16;;;;;;;3.20;2.40;;;;;;;;;;4519489;28;20613;-58
2021/11/03 00:06:27;;;;;;;4.40;2.23;;;;;;;;;;4536246;28;20037;-58
2021/11/03 00:08:37;;;;;;;2.67;2.05;;;;;;;;;;4519422;28;20137;-58
2021/11/03 00:10:50;;;;;;;3.03;2.23;;;;;;;;;;4536582;28;20037;-60
2021/11/03 00:13:00;;;;;;;2.63;1.90;;;;;;;;;;4518898;28;20034;-58
2021/11/03 00:15:11;;;;;;;2.50;2.00;;;;;;;;;;4535435;28;20490;-58
2021/11/03 00:17:21;;;;;;;2.10;1.70;;;;;;;;;;4536413;28;20037;-58
2021/11/03 00:19:32;;;;;;;2.10;1.57;;;;;;;;;;4536681;28;20029;-59
2021/11/03 00:21:42;;;;;;;2.10;1.90;;;;;;;;;;4502547;28;20092;-58
2021/11/03 00:23:52;;;;;;;2.93;2.17;;;;;;;;;;4536075;28;20099;-58
2021/11/03 00:26:03;;;;;;;3.33;2.37;;;;;;;;;;4536518;28;20039;-59
2021/11/03 00:28:16;;;;;;;3.77;1.97;;;;;;;;;;4518865;28;20422;-58
2021/11/03 00:30:26;;;;;;;4.22;2.40;;;;;;;;;;4515243;28;20121;-58
2021/11/03 00:32:38;;;;;;;3.53;2.10;;;;;;;;;;4515048;28;20706;-58
2021/11/03 00:34:48;;;;;;;2.17;1.80;;;;;;;;;;4522014;28;20052;-58
2021/11/03 00:36:59;;;;;;;1.92;1.70;;;;;;;;;;4538364;28;20029;-58
2021/11/03 00:39:10;;;;;;;2.35;1.80;;;;;;;;;;4518317;28;20041;-58
2021/11/03 00:41:21;;;;;;;2.50;2.00;;;;;;;;;;4538053;28;20083;-58
2021/11/03 00:43:32;;;;;;;2.50;1.90;;;;;;;;;;4539814;28;20033;-58
2021/11/03 00:45:45;;;;;;;2.58;1.80;;;;;;;;;;4505157;28;20207;-58
2021/11/03 00:47:55;;;;;;;4.60;2.00;;;;;;;;;;4521906;28;20107;-58
2021/11/03 00:50:06;;;;;;;2.30;1.73;;;;;;;;;;4538119;28;20037;-57
2021/11/03 00:52:17;;;;;;;;;;;;;;;;;;4521177;28;20036;-58
2021/11/03 00:54:29;;;;;;;2.47;1.83;;;;;;;;;;4491738;28;20008;-58
2021/11/03 00:56:40;;;;;;;2.30;1.92;;;;;;;;;;4521841;28;20037;-58
2021/11/03 00:58:50;;;;;;;3.80;2.10;;;;;;;;;;4504605;28;20387;-58
2021/11/03 01:01:01;;;;;;;4.20;2.13;;;;;;;;;;4538880;28;26737;-58
2021/11/03 01:03:11;;;;;;;3.10;2.10;;;;;;;;;;4503012;28;20048;-57
2021/11/03 01:05:25;;;;;;;2.83;1.95;;;;;;;;;;4519835;28;20037;-57
2021/11/03 01:07:35;;;;;;;2.65;1.80;;;;;;;;;;4521763;28;20659;-57
2021/11/03 01:09:46;;;;;;;2.40;1.93;;;;;;;;;;4520823;28;20088;-58
2021/11/03 01:11:56;;;;;;;2.63;2.00;;;;;;;;;;4521082;28;25064;-58
2021/11/03 01:14:09;;;;;;;1.60;1.50;;;;;;;;;;4539273;28;20095;-58
2021/11/03 01:16:20;;;;;;;2.03;1.50;;;;;;;;;;4537148;28;20899;-60
2021/11/03 01:18:32;;;;;;;1.90;1.70;;;;;;;;;;4538608;28;20137;-58
2021/11/03 01:20:45;;;;;;;1.80;1.45;;;;;;;;;;4498602;28;20042;-58
2021/11/03 01:22:56;;;;;;;2.70;1.83;;;;;;;;;;4538612;28;20068;-58
2021/11/03 01:25:09;;;;;;;2.67;1.83;;;;;;;;;;4521298;28;20033;-58
2021/11/03 01:27:20;;;;;;;2.30;1.80;;;;;;;;;;4538268;28;21287;-58
2021/11/03 01:29:30;;;;;;;1.77;1.50;;;;;;;;;;4538643;28;20104;-58
2021/11/03 01:31:41;;;;;;;1.90;1.60;;;;;;;;;;4521543;28;20406;-58
2021/11/03 01:33:54;;;;;;;2.07;1.53;;;;;;;;;;4520850;28;20041;-58
2021/11/03 01:36:04;;;;;;;1.83;1.42;;;;;;;;;;4521355;28;20026;-58
2021/11/03 01:38:16;;;;;;;1.98;1.45;;;;;;;;;;4536542;28;20071;-58
2021/11/03 01:40:30;;;;;;;1.45;1.35;;;;;;;;;;4504611;28;20064;-58
2021/11/03 01:42:41;;;;;;;1.80;1.48;;;;;;;;;;4520272;28;20041;-58
2021/11/03 01:44:51;;;;;;;1.53;1.30;;;;;;;;;;4519972;28;20076;-58
2021/11/03 01:47:40;;;;;;;2.40;1.63;;;;;;;;;;4488137;28;20133;-57
2021/11/03 01:49:51;;;;;;;1.52;1.42;;;;;;;;;;4538147;28;20067;-58
2021/11/03 01:52:05;;;;;;;2.30;1.60;;;;;;;;;;4520538;28;20041;-58
2021/11/03 01:54:23;;;;;;;1.80;1.60;;;;;;;;;;4516900;28;20788;-58
2021/11/03 01:56:34;;;;;;;1.95;1.75;;;;;;;;;;4504367;28;20038;-58
2021/11/03 01:58:46;;;;;;;;;;;;;;;;;;4521081;28;21173;-58
2021/11/03 02:00:57;;;;;;;2.17;1.60;;;;;;;;;;4521493;28;19919;-58
2021/11/03 02:03:13;;;;;;;1.60;1.50;;;;;;;;;;4503999;28;20037;-58
2021/11/03 02:05:27;;;;;;;1.73;1.48;;;;;;;;;;4537913;28;20052;-58
2021/11/03 02:07:39;;;;;;;1.70;1.27;;;;;;;;;;4520488;28;20437;-58
2021/11/03 02:09:51;;;;;;;2.47;1.30;;;;;;;;;;4504418;28;20146;-58
2021/11/03 02:12:03;;;;;;;1.40;1.30;;;;;;;;;;4500411;28;20038;-58
2021/11/03 02:14:14;;;;;;;1.40;1.23;;;;;;;;;;4520641;28;20041;-58
2021/11/03 02:16:27;;;;;;;1.57;1.20;;;;;;;;;;4525487;28;20037;-58
2021/11/03 02:18:37;;;;;;;1.20;1.10;;;;;;;;;;4520620;28;20233;-58
2021/11/03 02:20:50;;;;;;;1.20;1.10;;;;;;;;;;4538403;28;20536;-58
2021/11/03 02:23:09;;;;;;;1.40;1.10;;;;;;;;;;4504218;28;20593;-58
2021/11/03 02:25:35;;;;;;;1.17;1.05;;;;;;;;;;4520748;28;20065;-58
2021/11/03 02:27:48;;;;;;;1.10;1.00;;;;;;;;;;4503992;28;20668;-58
2021/11/03 02:29:58;;;;;;;1.02;0.95;;;;;;;;;;4520406;28;20266;-58
2021/11/03 02:32:16;;;;;;;1.30;1.20;;;;;;;;;;4519736;28;20041;-58
2021/11/03 02:34:30;;;;;;;1.40;1.30;;;;;;;;;;4537266;28;20045;-58
2021/11/03 02:36:57;;;;;;;1.75;1.38;;;;;;;;;;4535592;28;20040;-58
2021/11/03 02:39:09;;;;;;;1.13;1.02;;;;;;;;;;4537069;28;20635;-58
2021/11/03 02:41:25;;;;;;;1.35;0.93;;;;;;;;;;4519551;28;20054;-58
2021/11/03 02:43:41;;;;;;;1.08;0.80;;;;;;;;;;4520349;28;20076;-58
2021/11/03 02:45:58;;;;;;;1.63;1.10;;;;;;;;;;4499553;28;20037;-59
2021/11/03 02:48:10;;;;;;;0.90;0.90;;;;;;;;;;4536937;28;20033;-58
2021/11/03 02:50:21;;;;;;;1.20;1.10;;;;;;;;;;4537371;28;20032;-58
2021/11/03 02:52:31;;;;;;;1.10;1.00;;;;;;;;;;4519710;28;20072;-59
2021/11/03 02:54:42;;;;;;;1.17;1.07;;;;;;;;;;4537756;28;20052;-58
2021/11/03 02:56:54;;;;;;;1.30;1.20;;;;;;;;;;4517592;28;20030;-58
2021/11/03 02:59:06;;;;;;;1.10;1.00;;;;;;;;;;4519628;28;20053;-58
2021/11/03 03:01:33;;;;;;;0.80;0.80;;;;;;;;;;4502464;28;20033;-58
2021/11/03 03:03:45;;;;;;;1.20;1.10;;;;;;;;;;4534604;28;20681;-58
2021/11/03 03:06:00;;;;;;;1.13;0.80;;;;;;;;;;4515773;28;20940;-58
2021/11/03 03:08:10;;;;;;;1.25;1.10;;;;;;;;;;4534463;28;20072;-58
2021/11/03 03:10:21;;;;;;;1.47;1.10;;;;;;;;;;4519957;28;20129;-58
2021/11/03 03:12:32;;;;;;;1.20;1.10;;;;;;;;;;4519127;28;20493;-58
2021/11/03 03:14:45;;;;;;;1.33;1.10;;;;;;;;;;4519808;28;20037;-58
2021/11/03 03:16:58;;;;;;;1.45;1.10;;;;;;;;;;4519465;28;20041;-58
2021/11/03 03:19:09;;;;;;;1.20;1.10;;;;;;;;;;4520938;28;20033;-59
2021/11/03 03:21:21;;;;;;;1.38;1.17;;;;;;;;;;4536201;28;20588;-58
2021/11/03 03:23:32;;;;;;;1.35;1.15;;;;;;;;;;4520049;28;20650;-58
2021/11/03 03:25:44;;;;;;;1.93;1.63;;;;;;;;;;4513645;28;20029;-58
2021/11/03 03:27:56;;;;;;;2.08;1.40;;;;;;;;;;4522638;28;20060;-58
2021/11/03 03:30:07;;;;;;;1.40;1.30;;;;;;;;;;4520067;28;20116;-58
2021/11/03 03:32:18;;;;;;;2.45;1.50;;;;;;;;;;4535740;28;20028;-58
2021/11/03 03:34:28;;;;;;;2.33;1.40;;;;;;;;;;4536231;28;20493;-58
2021/11/03 03:36:40;;;;;;;1.40;1.30;;;;;;;;;;4533890;28;20028;-58
2021/11/03 03:38:51;;;;;;;;;;;;;;;;;;4520005;28;20096;-58
2021/11/03 03:41:02;;;;;;;1.30;1.20;;;;;;;;;;4518846;28;19917;-58
2021/11/03 03:43:14;;;;;;;1.42;1.17;;;;;;;;;;4517430;28;20033;-58
2021/11/03 03:45:24;;;;;;;1.30;1.20;;;;;;;;;;4536420;28;20085;-58
2021/11/03 03:47:37;;;;;;;1.67;1.30;;;;;;;;;;4517887;28;20275;-58
2021/11/03 03:49:48;;;;;;;2.23;1.50;;;;;;;;;;4518975;28;20061;-58
2021/11/03 03:52:00;;;;;;;1.70;1.33;;;;;;;;;;4513210;28;20038;-58
2021/11/03 03:54:11;;;;;;;;;;;;;;;;;;4520120;28;20664;-58
2021/11/03 03:56:22;;;;;;;1.42;1.33;;;;;;;;;;4518222;28;19913;-58
2021/11/03 03:58:35;;;;;;;1.30;1.20;;;;;;;;;;4518817;28;20722;-58
2021/11/03 04:00:48;;;;;;;1.48;1.30;;;;;;;;;;4519325;28;20036;-58
2021/11/03 04:02:59;;;;;;;1.88;1.30;;;;;;;;;;4519376;28;20025;-58
2021/11/03 04:05:10;;;;;;;2.45;1.13;;;;;;;;;;4537225;28;20037;-58
2021/11/03 04:07:21;;;;;;;1.00;1.00;;;;;;;;;;4511683;28;20038;-58
2021/11/03 04:09:31;;;;;;;1.20;1.10;;;;;;;;;;4534555;28;20017;-58
2021/11/03 04:11:42;;;;;;;1.33;1.20;;;;;;;;;;4535005;28;20554;-58
2021/11/03 04:13:57;;;;;;;1.35;1.17;;;;;;;;;;4508029;28;20038;-58
2021/11/03 04:16:10;;;;;;;2.30;1.75;;;;;;;;;;4517897;28;20034;-58
2021/11/03 04:18:21;;;;;;;2.70;1.80;;;;;;;;;;4518861;28;20112;-58
2021/11/03 04:20:32;;;;;;;2.73;1.87;;;;;;;;;;4516475;28;20092;-58
2021/11/03 04:22:43;;;;;;;2.38;1.90;;;;;;;;;;4535596;28;20083;-58
2021/11/03 04:24:54;;;;;;;2.10;1.70;;;;;;;;;;4499735;28;20030;-58
2021/11/03 04:27:04;;;;;;;1.73;1.53;;;;;;;;;;4518142;28;20033;-59
2021/11/03 04:29:17;;;;;;;1.60;1.50;;;;;;;;;;4535848;28;20129;-59
2021/11/03 04:31:28;;;;;;;1.75;1.60;;;;;;;;;;4518537;28;20033;-58
2021/11/03 04:33:39;;;;;;;1.70;1.60;;;;;;;;;;4534142;28;20029;-58
2021/11/03 04:35:50;;;;;;;1.60;1.50;;;;;;;;;;4501800;28;20030;-58
2021/11/03 04:38:02;;;;;;;1.30;1.20;;;;;;;;;;4518307;28;20109;-58
2021/11/03 04:40:16;;;;;;;1.85;1.48;;;;;;;;;;4518276;28;20592;-58
2021/11/03 04:42:27;;;;;;;1.40;1.30;;;;;;;;;;4517928;28;20038;-58
2021/11/03 04:44:39;;;;;;;;;;;;;;;;;;4519069;28;20825;-58
2021/11/03 04:46:50;;;;;;;;;;;;;;;;;;4517476;28;21149;-58
2021/11/03 04:49:06;;;;;;;1.20;1.10;;;;;;;;;;4535649;28;20491;-58
2021/11/03 04:51:16;;;;;;;1.80;1.33;;;;;;;;;;4536030;28;20966;-58
2021/11/03 04:53:28;;;;;;;;;;;;;;;;;;4516366;28;20061;-58
2021/11/03 04:55:39;;;;;;;2.03;1.50;;;;;;;;;;4519066;28;20448;-58
2021/11/03 04:57:52;;;;;;;1.40;1.30;;;;;;;;;;4518910;28;20038;-58
2021/11/03 05:00:09;;;;;;;1.55;1.23;;;;;;;;;;4535271;28;20040;-58
2021/11/03 05:02:22;;;;;;;1.40;1.30;;;;;;;;;;4502373;28;20034;-58
2021/11/03 05:04:33;;;;;;;1.90;1.52;;;;;;;;;;4536339;28;20144;-58
2021/11/03 05:06:48;;;;;;;1.87;1.63;;;;;;;;;;4535277;28;20037;-58
2021/11/03 05:08:59;;;;;;;1.90;1.40;;;;;;;;;;4518216;28;20034;-58
2021/11/03 05:11:11;;;;;;;1.70;1.60;;;;;;;;;;4535626;28;20033;-58
2021/11/03 05:13:23;;;;;;;1.30;1.20;;;;;;;;;;4533337;28;20041;-58
2021/11/03 05:15:34;;;;;;;1.40;1.30;;;;;;;;;;4518085;28;20052;-61
2021/11/03 05:17:44;;;;;;;1.58;1.48;;;;;;;;;;4520057;28;20696;-58
2021/11/03 05:19:55;;;;;;;1.50;1.40;;;;;;;;;;4513553;28;20061;-58
2021/11/03 05:22:16;;;;;;;1.42;1.33;;;;;;;;;;4521572;28;20037;-58
2021/11/03 05:24:28;;;;;;;1.30;1.20;;;;;;;;;;4537591;28;20442;-58
2021/11/03 05:26:38;;;;;;;1.30;1.17;;;;;;;;;;4539614;28;21263;-58
2021/11/03 05:28:52;;;;;;;1.33;1.23;;;;;;;;;;4537645;28;27252;-58
2021/11/03 05:31:04;;;;;;;1.40;1.30;;;;;;;;;;4539595;28;20852;-58
2021/11/03 05:33:15;;;;;;;1.42;1.30;;;;;;;;;;4539112;28;20107;-58
2021/11/03 05:35:25;;;;;;;1.77;1.40;;;;;;;;;;4539051;28;20060;-58
2021/11/03 05:37:36;;;;;;;2.07;1.63;;;;;;;;;;4538784;28;20095;-59
2021/11/03 05:39:47;;;;;;;2.63;1.57;;;;;;;;;;4539042;28;20120;-59
2021/11/03 05:41:57;;;;;;;1.65;1.52;;;;;;;;;;4520279;28;20036;-58
2021/11/03 05:44:10;;;;;;;1.30;1.20;;;;;;;;;;4520936;28;20148;-61
2021/11/03 05:46:29;;;;;;;1.58;1.48;;;;;;;;;;4538940;28;20052;-58
2021/11/03 05:48:42;;;;;;;1.80;1.55;;;;;;;;;;4521392;28;20674;-58
2021/11/03 05:50:53;;;;;;;1.83;1.60;;;;;;;;;;4538033;28;20029;-58
2021/11/03 05:53:04;;;;;;;1.30;1.13;;;;;;;;;;4537774;28;20041;-58
2021/11/03 05:55:15;;;;;;;1.27;1.17;;;;;;;;;;4538920;28;20488;-58
2021/11/03 05:57:29;;;;;;;1.37;1.27;;;;;;;;;;4538347;28;20040;-58
2021/11/03 05:59:39;;;;;;;1.17;1.08;;;;;;;;;;4538153;28;20112;-58
2021/11/03 06:01:50;;;;;;;1.47;1.20;;;;;;;;;;4537706;28;20108;-58
2021/11/03 06:04:00;;;;;;;2.53;1.30;;;;;;;;;;4521084;28;20546;-58
2021/11/03 06:06:12;;;;;;;1.20;1.10;;;;;;;;;;4520962;28;20097;-58
2021/11/03 06:08:22;;;;;;;;;;;;;;;;;;4519490;28;20135;-58
2021/11/03 06:10:40;;;;;;;1.30;1.20;;;;;;;;;;4537395;28;19921;-58
2021/11/03 06:12:51;;;;;;;1.48;1.38;;;;;;;;;;4521053;28;20108;-59
2021/11/03 06:15:03;;;;;;;1.40;1.30;;;;;;;;;;4538525;28;20155;-58
2021/11/03 06:17:13;;;;;;;1.67;1.40;;;;;;;;;;4536573;28;20033;-58
2021/11/03 06:19:25;;;;;;;1.23;1.13;;;;;;;;;;4520399;28;20410;-58
2021/11/03 06:21:36;;;;;;;1.88;1.30;;;;;;;;;;4536463;28;20156;-58
2021/11/03 06:23:46;;;;;;;1.10;1.00;;;;;;;;;;4520066;28;32927;-58
2021/11/03 06:25:57;;;;;;;1.30;1.20;;;;;;;;;;4536054;28;20047;-58
2021/11/03 06:28:07;;;;;;;1.47;1.30;;;;;;;;;;4519664;28;20037;-58
2021/11/03 06:30:22;;;;;;;1.50;1.20;;;;;;;;;;4536409;28;20036;-58
2021/11/03 06:32:32;;;;;;;1.55;1.08;;;;;;;;;;4519766;28;20080;-58
2021/11/03 06:34:43;;;;;;;1.30;1.20;;;;;;;;;;4519956;28;20077;-58
2021/11/03 06:36:53;;;;;;;1.40;1.30;;;;;;;;;;4537855;28;20047;-58
2021/11/03 06:39:08;;;;;;;1.60;1.20;;;;;;;;;;4536632;28;20041;-58
2021/11/03 06:41:19;;;;;;;1.20;1.10;;;;;;;;;;4537763;28;20572;-58
2021/11/03 06:43:29;;;;;;;1.20;1.10;;;;;;;;;;4520105;28;20093;-58
2021/11/03 06:45:41;;;;;;;1.70;1.30;;;;;;;;;;4517000;28;20572;-58
2021/11/03 06:47:52;;;;;;;1.83;1.70;;;;;;;;;;4519383;28;20040;-58
2021/11/03 06:50:04;;;;;;;2.17;1.85;;;;;;;;;;4537038;28;20568;-58
2021/11/03 06:52:15;;;;;;;1.48;1.30;;;;;;;;;;4536255;28;20132;-58
2021/11/03 06:54:25;;;;;;;1.77;1.60;;;;;;;;;;4537374;28;20049;-58
2021/11/03 06:56:37;;;;;;;1.80;1.60;;;;;;;;;;4514588;28;20029;-58
2021/11/03 06:58:47;;;;;;;2.08;1.70;;;;;;;;;;4519254;28;20033;-58
2021/11/03 07:00:58;;;;;;;1.83;1.50;;;;;;;;;;4537147;28;20037;-58
2021/11/03 07:03:09;;;;;;;1.75;1.60;;;;;;;;;;4536099;28;20029;-58
2021/11/03 07:05:20;;;;;;;1.50;1.40;;;;;;;;;;4537651;28;20037;-58
2021/11/03 07:07:30;;;;;;;2.00;1.70;;;;;;;;;;4518343;28;20265;-58
2021/11/03 07:09:41;;;;;;;1.80;1.70;;;;;;;;;;4535886;28;20080;-58
2021/11/03 07:11:51;;;;;;;2.00;1.73;;;;;;;;;;4536280;28;20228;-58
2021/11/03 07:14:02;;;;;;;2.73;1.90;;;;;;;;;;4518491;28;20605;-58
2021/11/03 07:16:13;;;;;;;2.03;1.83;;;;;;;;;;4536836;28;20029;-58
2021/11/03 07:18:24;;;;;;;2.13;1.90;;;;;;;;;;4502205;28;20029;-58
2021/11/03 07:20:35;;;;;;;2.83;2.20;;;;;;;;;;4536211;28;20083;-58
2021/11/03 07:22:46;;;;;;;2.42;2.13;;;;;;;;;;4517619;28;20111;-58
2021/11/03 07:24:56;;;;;;;2.53;2.20;;;;;;;;;;4536732;28;20031;-58
2021/11/03 07:27:07;;;;;;;3.20;1.87;;;;;;;;;;4535243;28;20369;-59
2021/11/03 07:29:18;;;;;;;2.95;2.35;;;;;;;;;;4535958;28;20864;-58
2021/11/03 07:31:28;;;;;;;2.70;2.07;;;;;;;;;;4517284;28;30657;-58
2021/11/03 07:33:39;;;;;;;2.87;2.20;;;;;;;;;;4534928;28;20667;-58
2021/11/03 07:35:50;;;;;;;2.45;2.15;;;;;;;;;;4533135;28;20148;-58
2021/11/03 07:38:02;;;;;;;2.75;2.50;;;;;;;;;;4536034;28;20519;-58
2021/11/03 07:40:15;;;;;;;2.60;2.20;;;;;;;;;;4534614;28;20037;-58
2021/11/03 07:42:26;;;;;;;2.17;1.98;;;;;;;;;;4533533;28;20033;-58
2021/11/03 07:44:40;;;;;;;2.08;1.83;;;;;;;;;;4518540;28;20467;-58
2021/11/03 07:46:50;;;;;;;2.10;1.90;;;;;;;;;;4536694;28;20120;-58
2021/11/03 07:49:01;;;;;;;2.83;2.40;;;;;;;;;;4534604;28;20321;-58
2021/11/03 07:51:14;;;;;;;3.20;2.65;;;;;;;;;;4535018;28;20041;-58
2021/11/03 07:53:25;;;;;;;2.80;2.50;;;;;;;;;;4534653;28;20095;-58
2021/11/03 07:55:36;;;;;;;2.73;2.33;;;;;;;;;;4534096;28;20095;-58
2021/11/03 07:57:47;;;;;;;2.42;2.17;;;;;;;;;;4518603;28;20069;-58
2021/11/03 07:59:57;;;;;;;3.47;2.27;;;;;;;;;;4535594;28;20443;-58
2021/11/03 08:02:09;;;;;;;2.23;2.03;;;;;;;;;;4536731;28;20092;-58
2021/11/03 08:04:19;;;;;;;;;;;;;;;;;;4537158;28;20025;-58
2021/11/03 08:06:30;;;;;;;3.75;2.30;;;;;;;;;;4536646;28;20322;-58
2021/11/03 08:09:01;;;;;;;2.40;1.97;;;;;;;;;;4535846;28;20060;-58
2021/11/03 08:11:14;;;;;;;;;;;;;;;;;;4534656;28;20167;-58
2021/11/03 08:13:26;;;;;;;;;;;;;;;;;;4517770;28;19917;-58
2021/11/03 08:15:37;;;;;;;3.33;2.90;;;;;;;;;;4533731;28;19924;-58
2021/11/03 08:17:48;;;;;;;3.30;2.73;;;;;;;;;;4534183;28;20033;-58
2021/11/03 08:20:00;;;;;;;3.17;2.60;;;;;;;;;;4517344;28;20065;-58
2021/11/03 08:22:11;;;;;;;3.28;2.80;;;;;;;;;;4535515;28;20036;-58
2021/11/03 08:24:22;;;;;;;4.17;3.07;;;;;;;;;;4517997;28;20036;-57
2021/11/03 08:26:32;;;;;;;3.60;2.97;;;;;;;;;;4535778;28;20032;-57
2021/11/03 08:28:42;;;;;;;3.77;2.97;;;;;;;;;;4535494;28;22430;-57
2021/11/03 08:30:54;;;;;;;3.47;2.90;;;;;;;;;;4535166;28;20041;-57
2021/11/03 08:33:09;;;;;;;;;;;;;;;;;;4516425;28;20577;-59
2021/11/03 08:35:22;;;;;;;3.10;2.80;;;;;;;;;;4532470;28;19921;-59
2021/11/03 08:37:34;;;;;;;3.58;3.13;;;;;;;;;;4533735;28;20041;-59
2021/11/03 08:39:47;;;;;;;3.10;2.75;;;;;;;;;;4533643;28;20080;-59
2021/11/03 08:41:58;;;;;;;3.60;2.90;;;;;;;;;;4500230;28;21706;-59
2021/11/03 08:44:08;;;;;;;3.73;2.80;;;;;;;;;;4518772;28;20137;-60
2021/11/03 08:46:19;;;;;;;4.73;2.77;;;;;;;;;;4533953;28;20037;-60
2021/11/03 08:48:30;;;;;;;3.10;2.80;;;;;;;;;;4498474;28;20042;-60
2021/11/03 08:50:41;;;;;;;3.42;3.03;;;;;;;;;;4536480;28;20576;-60
2021/11/03 08:52:52;;;;;;;3.60;2.95;;;;;;;;;;4535999;28;20037;-60
2021/11/03 08:55:03;;;;;;;3.80;3.13;;;;;;;;;;4536574;28;20572;-60
2021/11/03 08:57:14;;;;;;;3.93;3.27;;;;;;;;;;4537694;28;20279;-60
2021/11/03 08:59:25;;;;;;;3.45;2.92;;;;;;;;;;4538463;28;20037;-59
2021/11/03 09:01:37;;;;;;;4.40;3.07;;;;;;;;;;4538394;28;20033;-60
2021/11/03 09:03:49;;;;;;;3.67;3.00;;;;;;;;;;4514766;28;20156;-59
2021/11/03 09:06:01;;;;;;;3.70;3.20;;;;;;;;;;4538658;28;20021;-60
2021/11/03 09:08:12;;;;;;;4.32;3.22;;;;;;;;;;4504437;28;21333;-60
2021/11/03 09:10:24;;;;;;;4.28;3.53;;;;;;;;;;4520214;28;20059;-59
2021/11/03 09:12:35;;;;;;;3.42;3.03;;;;;;;;;;4537105;28;20017;-60
2021/11/03 09:14:45;;;;;;;4.57;3.90;;;;;;;;;;4538143;28;20568;-60
2021/11/03 09:16:56;;;;;;;4.07;3.50;;;;;;;;;;4538234;28;20037;-58
2021/11/03 09:19:06;;;;;;;4.17;3.57;;;;;;;;;;4504385;28;21165;-59
2021/11/03 09:21:17;;;;;;;4.33;3.60;;;;;;;;;;4520892;28;20038;-61
2021/11/03 09:23:28;;;;;;;4.15;3.42;;;;;;;;;;4539053;28;20548;-61
2021/11/03 09:25:39;;;;;;;3.67;3.13;;;;;;;;;;4538164;28;20029;-59
2021/11/03 09:27:51;;;;;;;3.75;3.35;;;;;;;;;;4538486;28;22889;-59
2021/11/03 09:30:01;;;;;;;;;;;;;;;;;;4539146;28;20630;-59
2021/11/03 09:32:15;;;;;;;4.05;3.40;;;;;;;;;;4520779;28;19921;-59
2021/11/03 09:34:26;;;;;;;4.40;3.58;;;;;;;;;;4521164;28;20140;-60
2021/11/03 09:36:42;;;;;;;3.53;3.20;;;;;;;;;;4539127;28;20033;-60
2021/11/03 09:38:53;;;;;;;4.68;3.50;;;;;;;;;;4538252;28;21704;-57
2021/11/03 09:41:13;;;;;;;4.82;3.60;;;;;;;;;;4538157;28;20033;-59
2021/11/03 09:43:25;;;;;;;3.83;3.30;;;;;;;;;;4538474;28;20033;-59
2021/11/03 09:45:36;;;;;;;4.00;3.47;;;;;;;;;;4534535;28;21120;-59
2021/11/03 09:48:04;;;;;;;4.25;3.50;;;;;;;;;;4519550;28;20045;-60
2021/11/03 09:50:18;;;;;;;4.03;3.50;;;;;;;;;;4521064;28;20083;-59
2021/11/03 09:52:35;;;;;;;4.78;3.30;;;;;;;;;;4535501;28;20084;-59
2021/11/03 09:54:54;;;;;;;5.63;3.92;;;;;;;;;;4520389;28;20041;-59
2021/11/03 09:57:07;;;;;;;4.95;4.05;;;;;;;;;;4520510;28;20142;-59
2021/11/03 09:59:48;;;;;;;4.20;3.45;;;;;;;;;;4538425;28;20474;-59
2021/11/03 10:02:17;;;;;;;4.65;3.70;;;;;;;;;;4537111;28;20082;-59
2021/11/03 10:04:44;;;;;;;5.00;3.90;;;;;;;;;;4538817;28;20041;-58
2021/11/03 10:07:30;;;;;;;4.75;3.72;;;;;;;;;;4536792;28;20021;-59
2021/11/03 10:09:41;;;;;;;4.82;3.88;;;;;;;;;;4485349;28;20082;-59
2021/11/03 10:11:53;;;;;;;4.97;4.03;;;;;;;;;;4536673;28;20360;-58
2021/11/03 10:14:05;;;;;;;5.15;3.95;;;;;;;;;;4534128;28;20112;-59
2021/11/03 10:16:15;;;;;;;5.03;4.15;;;;;;;;;;4520429;28;20033;-59
2021/11/03 10:18:32;;;;;;;5.37;4.30;;;;;;;;;;4536051;28;20037;-58
2021/11/03 10:21:06;;;;;;;6.47;5.10;;;;;;;;;;4516775;28;20044;-59
2021/11/03 10:23:24;;;;;;;5.50;4.40;;;;;;;;;;4505081;28;20508;-58
2021/11/03 10:25:35;;;;;;;5.85;4.63;;;;;;;;;;4536951;28;20095;-59
2021/11/03 10:27:53;;;;;;;5.43;4.73;;;;;;;;;;4520083;28;20033;-59
2021/11/03 10:30:49;;;;;;;4.90;4.03;;;;;;;;;;4537004;28;20037;-60
2021/11/03 10:33:16;;;;;;;5.03;4.07;;;;;;;;;;4458086;28;20038;-59
2021/11/03 10:35:29;;;;;;;5.65;3.85;;;;;;;;;;4528137;28;20045;-60
2021/11/03 10:37:44;;;;;;;4.00;3.40;;;;;;;;;;4537669;28;20044;-59
2021/11/03 10:40:00;;;;;;;4.20;3.60;;;;;;;;;;4517480;28;20100;-59
2021/11/03 10:42:47;;;;;;;4.35;3.70;;;;;;;;;;4520301;28;20034;-59
2021/11/03 10:45:38;;;;;;;4.93;4.18;;;;;;;;;;4536132;28;20741;-59
2021/11/03 10:48:24;;;;;;;4.57;3.78;;;;;;;;;;4536170;28;20037;-59
2021/11/03 10:51:02;;;;;;;5.13;3.85;;;;;;;;;;4517806;28;20575;-59
2021/11/03 10:53:17;;;;;;;4.90;4.03;;;;;;;;;;4504334;28;20080;-59
2021/11/03 10:55:27;;;;;;;5.45;4.63;;;;;;;;;;4536158;28;20072;-59
2021/11/03 10:57:40;;;;;;;5.20;4.50;;;;;;;;;;4536624;28;20120;-59
2021/11/03 11:00:00;;;;;;;4.97;4.15;;;;;;;;;;4536313;28;20035;-59
2021/11/03 11:02:26;;;;;;;5.20;4.18;;;;;;;;;;4537708;28;20036;-59
2021/11/03 11:04:37;;;;;;;4.35;3.70;;;;;;;;;;4535679;28;20580;-59
2021/11/03 11:07:09;;;;;;;5.63;4.47;;;;;;;;;;4520134;28;20033;-59
2021/11/03 11:09:28;;;;;;;5.18;4.25;;;;;;;;;;4537760;28;20583;-59
2021/11/03 11:11:41;;;;;;;5.18;4.40;;;;;;;;;;4519027;28;20034;-59
2021/11/03 11:14:01;;;;;;;5.32;4.30;;;;;;;;;;4519636;28;20103;-59
2021/11/03 11:16:11;;;;;;;5.05;4.07;;;;;;;;;;4537071;28;20037;-59
2021/11/03 11:19:04;;;;;;;5.33;4.20;;;;;;;;;;4518839;28;20053;-59
2021/11/03 11:21:25;;;;;;;5.60;4.55;;;;;;;;;;4537235;28;20028;-59
2021/11/03 11:23:40;;;;;;;5.90;4.50;;;;;;;;;;4535696;28;20103;-59
2021/11/03 11:26:00;;;;;;;5.97;4.65;;;;;;;;;;4519276;28;20033;-59
2021/11/03 11:28:45;;;;;;;5.47;4.40;;;;;;;;;;4537235;28;20555;-59
2021/11/03 11:31:02;;;;;;;5.70;4.38;;;;;;;;;;4537023;28;20041;-59
2021/11/03 11:33:56;;;;;;;5.47;4.45;;;;;;;;;;4533887;28;20063;-59
2021/11/03 11:36:06;;;;;;;6.13;4.70;;;;;;;;;;4535850;28;20136;-59
2021/11/03 11:38:19;;;;;;;5.07;4.23;;;;;;;;;;4536371;28;20033;-58
2021/11/03 11:40:41;;;;;;;5.35;3.95;;;;;;;;;;4532370;28;20169;-59
2021/11/03 11:43:06;;;;;;;5.82;4.22;;;;;;;;;;4534113;28;20048;-59
2021/11/03 11:45:19;;;;;;;5.18;4.13;;;;;;;;;;4516830;28;20029;-59
2021/11/03 11:47:40;;;;;;;5.07;4.20;;;;;;;;;;4535943;28;20548;-59
2021/11/03 11:49:51;;;;;;;5.93;4.15;;;;;;;;;;4534675;28;20102;-59
2021/11/03 11:52:23;;;;;;;5.60;4.27;;;;;;;;;;4517096;28;20067;-59
2021/11/03 11:55:01;;;;;;;5.13;4.32;;;;;;;;;;4515831;28;20686;-59
2021/11/03 11:57:12;;;;;;;5.53;4.30;;;;;;;;;;4534651;28;20036;-58
2021/11/03 11:59:58;;;;;;;4.60;3.97;;;;;;;;;;4535720;28;20040;-59
2021/11/03 12:02:18;;;;;;;5.28;4.00;;;;;;;;;;4518334;28;20560;-59
2021/11/03 12:04:29;;;;;;;4.50;3.80;;;;;;;;;;4518121;28;20108;-59
2021/11/03 12:06:51;;;;;;;5.47;4.60;;;;;;;;;;4536136;28;20041;-59
2021/11/03 12:09:21;;;;;;;5.13;4.40;;;;;;;;;;4535142;28;20041;-59
2021/11/03 12:11:55;;;;;;;4.95;3.95;;;;;;;;;;4535960;28;20037;-58
2021/11/03 12:14:20;;;;;;;4.57;4.13;;;;;;;;;;4521578;28;20714;-59
2021/11/03 12:16:35;;;;;;;5.20;4.10;;;;;;;;;;4535660;28;20623;-59
2021/11/03 12:18:55;;;;;;;4.55;4.10;;;;;;;;;;4535643;28;20040;-59
2021/11/03 12:21:29;;;;;;;5.03;4.13;;;;;;;;;;4519311;28;20814;-59
2021/11/03 12:23:45;;;;;;;6.53;4.68;;;;;;;;;;4529299;28;20049;-59
2021/11/03 12:26:15;;;;;;;5.28;4.13;;;;;;;;;;4537151;28;20528;-59
2021/11/03 12:28:46;;;;;;;4.70;4.03;;;;;;;;;;4535394;28;20533;-59
2021/11/03 12:31:15;;;;;;;4.85;3.83;;;;;;;;;;4539383;28;20029;-59
2021/11/03 12:33:25;;;;;;;4.20;3.60;;;;;;;;;;4521877;28;20042;-59
2021/11/03 12:35:36;;;;;;;4.17;3.67;;;;;;;;;;4538901;28;29461;-59
2021/11/03 12:37:49;;;;;;;4.63;4.07;;;;;;;;;;4539416;28;20072;-59
2021/11/03 12:40:17;;;;;;;4.50;3.40;;;;;;;;;;4520884;28;20033;-59
2021/11/03 12:42:34;;;;;;;4.15;3.53;;;;;;;;;;4521888;28;20041;-59
2021/11/03 12:45:19;;;;;;;3.50;3.08;;;;;;;;;;4538321;28;20124;-59
2021/11/03 12:47:44;;;;;;;3.90;3.20;;;;;;;;;;4517025;28;20046;-59
2021/11/03 12:50:15;;;;;;;4.35;3.28;;;;;;;;;;4539398;28;20128;-59
2021/11/03 12:52:27;;;;;;;3.78;3.00;;;;;;;;;;4538860;28;20025;-59
2021/11/03 12:54:37;;;;;;;3.55;3.10;;;;;;;;;;4540008;28;20817;-59
2021/11/03 12:57:18;;;;;;;4.47;3.33;;;;;;;;;;4522005;28;20114;-59
2021/11/03 12:59:40;;;;;;;4.18;3.03;;;;;;;;;;4539965;28;20043;-59
2021/11/03 13:01:54;;;;;;;4.35;3.35;;;;;;;;;;4540003;28;20033;-59
2021/11/03 13:04:16;;;;;;;3.80;3.10;;;;;;;;;;4538948;28;20041;-59
2021/11/03 13:06:38;;;;;;;3.53;3.05;;;;;;;;;;4520991;28;20584;-59
2021/11/03 13:08:48;;;;;;;3.13;2.80;;;;;;;;;;4538358;28;20558;-59
2021/11/03 13:11:25;;;;;;;3.20;2.53;;;;;;;;;;4539085;28;20041;-59
2021/11/03 13:13:54;;;;;;;2.75;2.42;;;;;;;;;;4538060;28;20595;-59
2021/11/03 13:16:23;;;;;;;3.20;2.67;;;;;;;;;;4519202;28;20042;-59
2021/11/03 13:18:37;;;;;;;2.97;2.65;;;;;;;;;;4521462;28;20132;-59
2021/11/03 13:20:59;;;;;;;3.03;2.40;;;;;;;;;;4537171;28;20119;-59
2021/11/03 13:23:16;;;;;;;;;;;;;;;;;;4519595;28;20018;-59
2021/11/03 13:25:33;;;;;;;2.63;2.38;;;;;;;;;;4520693;28;20727;-59
2021/11/03 13:27:43;;;;;;;2.75;2.33;;;;;;;;;;4487742;28;20069;-59
2021/11/03 13:29:57;;;;;;;2.97;2.50;;;;;;;;;;4537606;28;20052;-59
2021/11/03 13:32:19;;;;;;;2.55;2.15;;;;;;;;;;4520377;28;20836;-59
2021/11/03 13:34:47;;;;;;;3.47;2.40;;;;;;;;;;4537748;28;20045;-59